createdAt,value
2018-07-30T00:00:49.746Z,0
2018-07-30T00:01:49.229Z,0
2018-07-30T00:02:49.497Z,0
2018-07-30T00:03:49.742Z,0
2018-07-30T00:04:49.226Z,0
2018-07-30T00:05:49.742Z,0
2018-07-30T00:06:49.742Z,0
2018-07-30T00:07:49.748Z,0
2018-07-30T00:08:49.483Z,0
2018-07-30T00:09:49.741Z,0
2018-07-30T00:10:49.737Z,0
2018-07-30T00:11:49.481Z,0
2018-07-30T00:12:49.740Z,0
2018-07-30T00:13:49.478Z,0
2018-07-30T00:14:49.751Z,0
2018-07-30T00:15:49.224Z,0
2018-07-30T00:16:49.483Z,0
2018-07-30T00:17:49.735Z,0
2018-07-30T00:18:49.744Z,0
2018-07-30T00:19:49.506Z,0
2018-07-30T00:20:49.474Z,0
2018-07-30T00:21:49.224Z,0
2018-07-30T00:22:49.741Z,0
2018-07-30T00:23:49.729Z,0
2018-07-30T00:24:49.480Z,0
2018-07-30T00:25:49.728Z,0
2018-07-30T00:26:49.469Z,0
2018-07-30T00:27:49.474Z,0
2018-07-30T00:28:49.727Z,0
2018-07-30T00:29:49.723Z,0
2018-07-30T00:30:49.475Z,0
2018-07-30T00:31:49.748Z,0
2018-07-30T00:32:49.760Z,0
2018-07-30T00:33:49.465Z,0
2018-07-30T00:34:49.721Z,0
2018-07-30T00:35:49.468Z,0
2018-07-30T00:36:49.721Z,0
2018-07-30T00:37:49.718Z,0
2018-07-30T00:38:49.721Z,0
2018-07-30T00:39:49.725Z,0
2018-07-30T00:40:49.210Z,0
2018-07-30T00:41:49.467Z,0
2018-07-30T00:42:49.718Z,0
2018-07-30T00:43:49.719Z,0
2018-07-30T00:44:49.465Z,0
2018-07-30T00:45:49.726Z,0
2018-07-30T00:46:49.464Z,0
2018-07-30T00:47:49.205Z,0
2018-07-30T00:48:49.733Z,0
2018-07-30T00:49:49.465Z,0
2018-07-30T00:50:49.212Z,0
2018-07-30T00:51:49.469Z,0
2018-07-30T00:52:49.458Z,0
2018-07-30T00:53:49.714Z,0
2018-07-30T00:54:49.550Z,0
2018-07-30T00:55:49.722Z,0
2018-07-30T00:56:49.621Z,0
2018-07-30T00:57:49.459Z,0
2018-07-30T00:58:49.719Z,0
2018-07-30T00:59:49.462Z,0
2018-07-30T01:00:49.720Z,0
2018-07-30T01:01:49.718Z,0
2018-07-30T01:02:49.716Z,0
2018-07-30T01:03:49.726Z,0
2018-07-30T01:04:49.713Z,0
2018-07-30T01:05:49.709Z,0
2018-07-30T01:06:49.707Z,0
2018-07-30T01:07:50.085Z,0
2018-07-30T01:08:49.455Z,0
2018-07-30T01:09:49.712Z,0
2018-07-30T01:10:49.705Z,0
2018-07-30T01:11:49.716Z,0
2018-07-30T01:12:49.452Z,0
2018-07-30T01:13:49.743Z,0
2018-07-30T01:14:49.720Z,0
2018-07-30T01:15:49.707Z,0
2018-07-30T01:16:49.706Z,0
2018-07-30T01:17:49.703Z,0
2018-07-30T01:18:49.451Z,0
2018-07-30T01:19:49.449Z,0
2018-07-30T01:20:49.703Z,0
2018-07-30T01:21:49.801Z,0
2018-07-30T01:22:49.703Z,0
2018-07-30T01:23:49.721Z,0
2018-07-30T01:24:49.698Z,0
2018-07-30T01:25:49.443Z,0
2018-07-30T01:26:49.449Z,0
2018-07-30T01:27:49.440Z,0
2018-07-30T01:28:49.695Z,0
2018-07-30T01:29:49.479Z,0
2018-07-30T01:30:49.451Z,0
2018-07-30T01:31:49.697Z,0
2018-07-30T01:32:49.186Z,0
2018-07-30T01:33:49.700Z,0
2018-07-30T01:34:49.691Z,0
2018-07-30T01:35:49.437Z,0
2018-07-30T01:36:49.693Z,0
2018-07-30T01:37:49.702Z,0
2018-07-30T01:38:49.437Z,0
2018-07-30T01:39:49.690Z,0
2018-07-30T01:40:49.694Z,0
2018-07-30T01:41:49.432Z,0
2018-07-30T01:42:49.690Z,0
2018-07-30T01:43:49.434Z,0
2018-07-30T01:44:49.173Z,0
2018-07-30T01:45:49.427Z,0
2018-07-30T01:46:49.691Z,0
2018-07-30T01:47:49.683Z,0
2018-07-30T01:48:49.681Z,0
2018-07-30T01:49:49.178Z,0
2018-07-30T01:50:49.170Z,0
2018-07-30T01:51:49.419Z,0
2018-07-30T01:52:49.681Z,0
2018-07-30T01:53:49.684Z,0
2018-07-30T01:54:49.681Z,0
2018-07-30T01:55:49.683Z,0
2018-07-30T01:56:49.676Z,0
2018-07-30T01:57:49.419Z,0
2018-07-30T01:58:49.164Z,0
2018-07-30T01:59:49.424Z,0
2018-07-30T02:00:49.417Z,0
2018-07-30T02:01:49.415Z,0
2018-07-30T02:02:49.414Z,0
2018-07-30T02:03:49.672Z,0
2018-07-30T02:04:49.421Z,0
2018-07-30T02:05:49.416Z,0
2018-07-30T02:06:49.415Z,0
2018-07-30T02:07:49.671Z,0
2018-07-30T02:08:49.674Z,0
2018-07-30T02:09:49.409Z,0
2018-07-30T02:10:49.169Z,0
2018-07-30T02:11:49.664Z,0
2018-07-30T02:12:49.667Z,0
2018-07-30T02:13:49.410Z,0
2018-07-30T02:14:49.408Z,0
2018-07-30T02:15:49.675Z,0
2018-07-30T02:16:49.404Z,0
2018-07-30T02:17:49.662Z,0
2018-07-30T02:18:49.407Z,0
2018-07-30T02:19:49.663Z,0
2018-07-30T02:20:49.659Z,0
2018-07-30T02:21:49.403Z,0
2018-07-30T02:22:49.144Z,0
2018-07-30T02:23:49.399Z,0
2018-07-30T02:24:49.140Z,0
2018-07-30T02:25:49.658Z,0
2018-07-30T02:26:49.659Z,0
2018-07-30T02:27:49.655Z,0
2018-07-30T02:28:49.654Z,0
2018-07-30T02:29:49.392Z,0
2018-07-30T02:30:49.424Z,0
2018-07-30T02:31:49.657Z,0
2018-07-30T02:32:49.137Z,0
2018-07-30T02:33:49.651Z,0
2018-07-30T02:34:49.651Z,0
2018-07-30T02:35:49.655Z,0
2018-07-30T02:36:49.396Z,0
2018-07-30T02:37:49.393Z,0
2018-07-30T02:38:49.650Z,0
2018-07-30T02:39:49.661Z,0
2018-07-30T02:40:49.646Z,0
2018-07-30T02:41:49.402Z,0
2018-07-30T02:42:49.651Z,0
2018-07-30T02:43:49.668Z,0
2018-07-30T02:44:49.318Z,0
2018-07-30T02:45:49.760Z,0
2018-07-30T02:46:49.384Z,0
2018-07-30T02:47:49.389Z,0
2018-07-30T02:48:49.647Z,0
2018-07-30T02:49:49.645Z,0
2018-07-30T02:50:49.124Z,0
2018-07-30T02:51:49.674Z,0
2018-07-30T02:52:49.396Z,0
2018-07-30T02:53:49.384Z,0
2018-07-30T02:54:49.639Z,0
2018-07-30T02:55:49.429Z,0
2018-07-30T02:56:49.637Z,0
2018-07-30T02:57:49.612Z,0
2018-07-30T02:58:49.379Z,0
2018-07-30T02:59:49.635Z,0
2018-07-30T03:00:49.383Z,0
2018-07-30T03:01:49.373Z,4
2018-07-30T03:02:49.633Z,4
2018-07-30T03:03:49.626Z,0
2018-07-30T03:04:49.630Z,4
2018-07-30T03:05:49.641Z,4
2018-07-30T03:06:49.631Z,4
2018-07-30T03:07:49.633Z,8
2018-07-30T03:08:49.626Z,8
2018-07-30T03:09:49.624Z,8
2018-07-30T03:10:49.624Z,8
2018-07-30T03:11:49.626Z,12
2018-07-30T03:12:49.368Z,16
2018-07-30T03:13:49.375Z,16
2018-07-30T03:14:49.619Z,20
2018-07-30T03:15:49.624Z,20
2018-07-30T03:16:49.616Z,24
2018-07-30T03:17:49.360Z,28
2018-07-30T03:18:49.105Z,36
2018-07-30T03:19:49.620Z,36
2018-07-30T03:20:49.356Z,44
2018-07-30T03:21:49.363Z,48
2018-07-30T03:22:49.610Z,52
2018-07-30T03:23:49.104Z,60
2018-07-30T03:24:49.618Z,64
2018-07-30T03:25:49.611Z,72
2018-07-30T03:26:49.611Z,80
2018-07-30T03:27:49.355Z,84
2018-07-30T03:28:49.940Z,92
2018-07-30T03:29:49.352Z,104
2018-07-30T03:30:49.355Z,112
2018-07-30T03:31:49.645Z,120
2018-07-30T03:32:49.356Z,128
2018-07-30T03:33:49.349Z,136
2018-07-30T03:34:49.605Z,144
2018-07-30T03:35:49.613Z,152
2018-07-30T03:36:49.603Z,164
2018-07-30T03:37:49.342Z,172
2018-07-30T03:38:49.610Z,184
2018-07-30T03:39:48.830Z,192
2018-07-30T03:40:49.344Z,204
2018-07-30T03:41:49.601Z,216
2018-07-30T03:42:49.602Z,224
2018-07-30T03:43:49.595Z,236
2018-07-30T03:44:49.599Z,244
2018-07-30T03:45:49.342Z,256
2018-07-30T03:46:49.339Z,268
2018-07-30T03:47:49.591Z,280
2018-07-30T03:48:49.337Z,292
2018-07-30T03:49:49.338Z,304
2018-07-30T03:50:49.337Z,324
2018-07-30T03:51:49.336Z,336
2018-07-30T03:52:48.819Z,348
2018-07-30T03:53:49.589Z,368
2018-07-30T03:54:49.922Z,384
2018-07-30T03:55:49.588Z,408
2018-07-30T03:56:49.591Z,432
2018-07-30T03:57:49.590Z,456
2018-07-30T03:58:49.586Z,480
2018-07-30T03:59:49.581Z,504
2018-07-30T04:00:49.583Z,516
2018-07-30T04:01:49.325Z,512
2018-07-30T04:02:49.321Z,512
2018-07-30T04:03:49.343Z,520
2018-07-30T04:04:49.066Z,536
2018-07-30T04:05:49.474Z,552
2018-07-30T04:06:49.583Z,572
2018-07-30T04:07:49.724Z,592
2018-07-30T04:08:49.064Z,616
2018-07-30T04:09:49.574Z,640
2018-07-30T04:10:49.578Z,668
2018-07-30T04:11:49.580Z,704
2018-07-30T04:12:49.525Z,744
2018-07-30T04:13:49.565Z,788
2018-07-30T04:14:49.574Z,828
2018-07-30T04:15:49.320Z,872
2018-07-30T04:16:49.568Z,908
2018-07-30T04:17:49.560Z,948
2018-07-30T04:18:49.303Z,980
2018-07-30T04:19:49.562Z,1000
2018-07-30T04:20:49.312Z,1020
2018-07-30T04:21:49.558Z,1036
2018-07-30T04:22:49.565Z,1052
2018-07-30T04:23:49.555Z,1076
2018-07-30T04:24:49.567Z,1120
2018-07-30T04:25:49.297Z,1164
2018-07-30T04:26:49.045Z,1200
2018-07-30T04:27:49.551Z,1216
2018-07-30T04:28:49.035Z,1220
2018-07-30T04:29:49.294Z,1216
2018-07-30T04:30:49.121Z,1228
2018-07-30T04:31:49.550Z,1248
2018-07-30T04:32:49.541Z,1272
2018-07-30T04:33:49.031Z,1304
2018-07-30T04:34:49.295Z,1336
2018-07-30T04:35:49.539Z,1368
2018-07-30T04:36:49.540Z,1408
2018-07-30T04:37:49.537Z,1460
2018-07-30T04:38:49.279Z,1516
2018-07-30T04:39:49.532Z,1576
2018-07-30T04:40:49.542Z,1640
2018-07-30T04:41:49.542Z,1684
2018-07-30T04:42:49.536Z,1700
2018-07-30T04:43:49.836Z,1736
2018-07-30T04:44:49.534Z,1772
2018-07-30T04:45:49.269Z,1804
2018-07-30T04:46:49.275Z,1852
2018-07-30T04:47:49.520Z,1928
2018-07-30T04:48:49.527Z,2028
2018-07-30T04:49:49.528Z,2112
2018-07-30T04:50:49.269Z,2188
2018-07-30T04:51:49.531Z,2276
2018-07-30T04:52:49.517Z,2340
2018-07-30T04:53:49.009Z,2384
2018-07-30T04:54:49.518Z,2440
2018-07-30T04:55:49.528Z,2484
2018-07-30T04:56:49.515Z,2516
2018-07-30T04:57:49.506Z,2548
2018-07-30T04:58:49.509Z,2580
2018-07-30T04:59:49.507Z,2616
2018-07-30T05:00:49.247Z,2644
2018-07-30T05:01:49.255Z,2676
2018-07-30T05:02:49.248Z,2712
2018-07-30T05:03:49.624Z,2744
2018-07-30T05:04:49.247Z,2772
2018-07-30T05:05:49.249Z,2800
2018-07-30T05:06:49.498Z,2832
2018-07-30T05:07:49.501Z,2860
2018-07-30T05:08:49.500Z,2892
2018-07-30T05:09:49.241Z,2920
2018-07-30T05:10:49.491Z,2948
2018-07-30T05:11:49.491Z,2980
2018-07-30T05:12:49.250Z,3016
2018-07-30T05:13:49.488Z,3048
2018-07-30T05:14:49.230Z,3084
2018-07-30T05:15:49.244Z,3120
2018-07-30T05:16:49.237Z,3156
2018-07-30T05:17:49.231Z,3196
2018-07-30T05:18:48.974Z,3228
2018-07-30T05:19:49.228Z,3264
2018-07-30T05:20:49.230Z,3304
2018-07-30T05:21:49.225Z,3336
2018-07-30T05:22:48.969Z,3380
2018-07-30T05:23:49.481Z,3420
2018-07-30T05:24:49.479Z,3464
2018-07-30T05:25:49.480Z,3504
2018-07-30T05:26:49.215Z,3536
2018-07-30T05:27:49.475Z,3572
2018-07-30T05:28:49.222Z,3604
2018-07-30T05:29:49.223Z,3640
2018-07-30T05:30:49.474Z,3664
2018-07-30T05:31:49.720Z,3688
2018-07-30T05:32:49.470Z,3708
2018-07-30T05:33:49.476Z,3728
2018-07-30T05:34:49.217Z,3744
2018-07-30T05:35:49.464Z,3752
2018-07-30T05:36:49.466Z,3760
2018-07-30T05:37:49.470Z,3768
2018-07-30T05:38:49.215Z,3776
2018-07-30T05:39:49.212Z,3788
2018-07-30T05:40:49.206Z,3812
2018-07-30T05:41:49.465Z,3832
2018-07-30T05:42:49.705Z,3860
2018-07-30T05:43:49.009Z,3892
2018-07-30T05:44:49.204Z,3928
2018-07-30T05:45:49.207Z,3964
2018-07-30T05:46:49.205Z,3996
2018-07-30T05:47:49.468Z,4032
2018-07-30T05:48:49.203Z,4064
2018-07-30T05:49:49.459Z,4104
2018-07-30T05:50:49.461Z,4140
2018-07-30T05:51:49.213Z,4180
2018-07-30T05:52:49.220Z,4220
2018-07-30T05:53:49.200Z,4256
2018-07-30T05:54:48.950Z,4296
2018-07-30T05:55:49.461Z,4336
2018-07-30T05:56:49.200Z,4380
2018-07-30T05:57:49.470Z,4420
2018-07-30T05:58:49.204Z,4464
2018-07-30T05:59:49.432Z,4512
2018-07-30T06:00:49.456Z,4564
2018-07-30T06:01:49.456Z,4616
2018-07-30T06:02:49.460Z,4664
2018-07-30T06:03:49.202Z,4712
2018-07-30T06:04:49.196Z,4756
2018-07-30T06:05:48.943Z,4796
2018-07-30T06:06:49.461Z,4852
2018-07-30T06:07:48.685Z,4888
2018-07-30T06:08:49.461Z,4920
2018-07-30T06:09:49.731Z,4940
2018-07-30T06:10:49.459Z,4952
2018-07-30T06:11:49.455Z,4948
2018-07-30T06:12:49.468Z,4936
2018-07-30T06:13:48.942Z,4920
2018-07-30T06:14:48.948Z,4900
2018-07-30T06:15:49.205Z,4880
2018-07-30T06:16:49.212Z,4856
2018-07-30T06:17:49.204Z,4836
2018-07-30T06:18:49.199Z,4812
2018-07-30T06:19:49.211Z,4800
2018-07-30T06:20:49.524Z,4796
2018-07-30T06:21:49.202Z,4808
2018-07-30T06:22:49.206Z,4832
2018-07-30T06:23:49.461Z,4864
2018-07-30T06:24:49.205Z,4908
2018-07-30T06:25:49.208Z,4952
2018-07-30T06:26:49.463Z,4988
2018-07-30T06:27:49.207Z,5012
2018-07-30T06:28:49.465Z,5024
2018-07-30T06:29:49.462Z,5024
2018-07-30T06:30:49.477Z,5012
2018-07-30T06:31:48.716Z,5000
2018-07-30T06:32:49.211Z,4996
2018-07-30T06:33:49.209Z,4996
2018-07-30T06:34:49.210Z,5188
2018-07-30T06:35:49.468Z,5124
2018-07-30T06:36:49.467Z,5148
2018-07-30T06:37:49.471Z,5132
2018-07-30T06:38:49.470Z,5220
2018-07-30T06:39:49.471Z,5140
2018-07-30T06:40:49.476Z,5496
2018-07-30T06:41:49.472Z,8864
2018-07-30T06:42:49.221Z,7496
2018-07-30T06:43:49.217Z,5832
2018-07-30T06:44:49.216Z,6800
2018-07-30T06:45:49.482Z,8036
2018-07-30T06:46:49.224Z,15776
2018-07-30T06:47:49.319Z,22240
2018-07-30T06:48:48.971Z,22336
2018-07-30T06:49:49.228Z,18560
2018-07-30T06:50:49.229Z,12772
2018-07-30T06:51:49.495Z,10524
2018-07-30T06:52:49.232Z,17504
2018-07-30T06:53:49.510Z,28608
2018-07-30T06:54:49.243Z,35680
2018-07-30T06:55:48.981Z,40128
2018-07-30T06:56:49.247Z,41792
2018-07-30T06:57:49.504Z,40224
2018-07-30T06:58:48.999Z,39680
2018-07-30T06:59:49.505Z,39936
2018-07-30T07:00:49.262Z,39648
2018-07-30T07:01:49.516Z,40096
2018-07-30T07:02:49.525Z,39360
2018-07-30T07:03:49.012Z,38112
2018-07-30T07:04:49.531Z,36320
2018-07-30T07:05:49.021Z,35232
2018-07-30T07:06:49.279Z,37344
2018-07-30T07:07:49.542Z,38240
2018-07-30T07:08:49.038Z,34784
2018-07-30T07:09:49.297Z,33888
2018-07-30T07:10:49.410Z,36800
2018-07-30T07:11:49.318Z,38688
2018-07-30T07:12:49.317Z,39424
2018-07-30T07:13:49.591Z,39744
2018-07-30T07:14:49.335Z,41504
2018-07-30T07:15:49.345Z,42048
2018-07-30T07:16:49.901Z,43584
2018-07-30T07:17:49.626Z,43584
2018-07-30T07:18:49.627Z,40512
2018-07-30T07:19:49.376Z,40576
2018-07-30T07:20:50.042Z,41440
2018-07-30T07:21:50.160Z,41536
2018-07-30T07:22:49.402Z,41984
2018-07-30T07:23:49.721Z,42240
2018-07-30T07:24:49.689Z,42912
2018-07-30T07:25:49.684Z,44160
2018-07-30T07:26:49.434Z,44768
2018-07-30T07:27:49.464Z,43168
2018-07-30T07:28:49.458Z,44160
2018-07-30T07:29:49.728Z,44896
2018-07-30T07:30:49.732Z,45792
2018-07-30T07:31:49.741Z,48320
2018-07-30T07:32:49.749Z,44160
2018-07-30T07:33:50.019Z,35200
2018-07-30T07:34:49.840Z,39008
2018-07-30T07:35:49.788Z,46432
2018-07-30T07:36:49.800Z,44160
2018-07-30T07:37:49.543Z,38784
2018-07-30T07:38:49.822Z,41408
2018-07-30T07:39:49.571Z,44064
2018-07-30T07:40:49.578Z,44064
2018-07-30T07:41:49.842Z,43232
2018-07-30T07:42:49.598Z,33440
2018-07-30T07:43:49.609Z,16896
2018-07-30T07:44:49.623Z,8332
2018-07-30T07:45:49.892Z,7564
2018-07-30T07:46:49.940Z,7156
2018-07-30T07:47:49.397Z,6908
2018-07-30T07:48:49.920Z,6732
2018-07-30T07:49:49.683Z,6604
2018-07-30T07:50:50.400Z,6520
2018-07-30T07:51:49.964Z,6420
2018-07-30T07:52:49.963Z,6404
2018-07-30T07:53:49.977Z,6424
2018-07-30T07:54:50.000Z,6440
2018-07-30T07:55:49.997Z,6412
2018-07-30T07:56:50.013Z,6372
2018-07-30T07:57:49.766Z,6308
2018-07-30T07:58:49.517Z,6252
2018-07-30T07:59:49.790Z,6192
2018-07-30T08:00:50.062Z,6128
2018-07-30T08:01:49.808Z,6060
2018-07-30T08:02:49.822Z,6100
2018-07-30T08:03:50.088Z,6116
2018-07-30T08:04:49.842Z,6200
2018-07-30T08:05:50.113Z,6304
2018-07-30T08:06:49.862Z,6380
2018-07-30T08:07:49.874Z,6392
2018-07-30T08:08:50.141Z,6328
2018-07-30T08:09:50.571Z,6272
2018-07-30T08:10:50.215Z,6236
2018-07-30T08:11:50.179Z,6204
2018-07-30T08:12:49.921Z,6176
2018-07-30T08:13:50.193Z,6160
2018-07-30T08:14:49.956Z,6168
2018-07-30T08:15:49.956Z,6172
2018-07-30T08:16:49.966Z,6144
2018-07-30T08:17:49.973Z,6132
2018-07-30T08:18:49.999Z,6088
2018-07-30T08:19:50.257Z,6076
2018-07-30T08:20:50.004Z,6108
2018-07-30T08:21:50.266Z,6160
2018-07-30T08:22:50.283Z,6252
2018-07-30T08:23:50.034Z,6388
2018-07-30T08:24:50.290Z,6496
2018-07-30T08:25:50.301Z,6568
2018-07-30T08:26:49.795Z,6792
2018-07-30T08:27:50.316Z,7032
2018-07-30T08:28:50.337Z,7184
2018-07-30T08:29:50.334Z,7336
2018-07-30T08:30:50.097Z,7448
2018-07-30T08:31:50.364Z,7536
2018-07-30T08:32:50.101Z,7676
2018-07-30T08:33:50.126Z,7804
2018-07-30T08:34:49.864Z,8084
2018-07-30T08:35:50.396Z,8324
2018-07-30T08:36:50.136Z,8276
2018-07-30T08:37:50.407Z,8264
2018-07-30T08:38:50.151Z,8204
2018-07-30T08:39:50.418Z,8208
2018-07-30T08:40:50.171Z,8004
2018-07-30T08:41:50.438Z,7568
2018-07-30T08:42:50.447Z,7036
2018-07-30T08:43:50.188Z,6892
2018-07-30T08:44:50.454Z,7004
2018-07-30T08:45:49.952Z,7340
2018-07-30T08:46:50.473Z,8308
2018-07-30T08:47:50.528Z,9028
2018-07-30T08:48:50.693Z,9708
2018-07-30T08:49:50.506Z,9936
2018-07-30T08:50:50.501Z,10308
2018-07-30T08:51:50.249Z,10756
2018-07-30T08:52:50.006Z,10800
2018-07-30T08:53:50.267Z,11472
2018-07-30T08:54:50.014Z,11820
2018-07-30T08:55:50.282Z,11564
2018-07-30T08:56:50.552Z,11400
2018-07-30T08:57:50.293Z,10920
2018-07-30T08:58:50.557Z,10612
2018-07-30T08:59:50.569Z,10784
2018-07-30T09:00:50.575Z,10788
2018-07-30T09:01:50.326Z,10920
2018-07-30T09:02:50.586Z,10608
2018-07-30T09:03:50.605Z,10320
2018-07-30T09:04:50.347Z,9840
2018-07-30T09:05:50.352Z,9332
2018-07-30T09:06:50.358Z,8852
2018-07-30T09:07:50.366Z,8656
2018-07-30T09:08:50.378Z,8484
2018-07-30T09:09:50.641Z,8324
2018-07-30T09:10:50.386Z,8388
2018-07-30T09:11:50.646Z,8476
2018-07-30T09:12:50.122Z,8536
2018-07-30T09:13:50.718Z,8784
2018-07-30T09:14:50.678Z,8952
2018-07-30T09:15:49.910Z,9024
2018-07-30T09:16:49.916Z,9404
2018-07-30T09:17:50.694Z,9512
2018-07-30T09:18:50.447Z,9676
2018-07-30T09:19:50.194Z,9740
2018-07-30T09:20:50.205Z,9584
2018-07-30T09:21:50.466Z,9512
2018-07-30T09:22:50.477Z,9508
2018-07-30T09:23:50.739Z,9760
2018-07-30T09:24:50.491Z,9676
2018-07-30T09:25:50.776Z,10204
2018-07-30T09:26:50.924Z,10368
2018-07-30T09:27:50.512Z,10020
2018-07-30T09:28:50.784Z,9620
2018-07-30T09:29:50.791Z,9328
2018-07-30T09:30:50.793Z,9020
2018-07-30T09:31:50.541Z,8864
2018-07-30T09:32:50.878Z,8728
2018-07-30T09:33:50.298Z,8712
2018-07-30T09:34:50.829Z,8492
2018-07-30T09:35:50.826Z,7844
2018-07-30T09:36:50.844Z,7312
2018-07-30T09:37:50.849Z,7276
2018-07-30T09:38:51.242Z,7716
2018-07-30T09:39:50.604Z,8552
2018-07-30T09:40:50.608Z,8488
2018-07-30T09:41:50.876Z,7888
2018-07-30T09:42:50.623Z,7552
2018-07-30T09:43:50.627Z,7284
2018-07-30T09:44:50.831Z,7272
2018-07-30T09:45:50.901Z,7176
2018-07-30T09:46:50.906Z,7216
2018-07-30T09:47:50.404Z,7432
2018-07-30T09:48:50.672Z,7692
2018-07-30T09:49:50.423Z,7284
2018-07-30T09:50:50.684Z,7612
2018-07-30T09:51:50.691Z,7968
2018-07-30T09:52:50.966Z,7916
2018-07-30T09:53:50.704Z,8668
2018-07-30T09:54:50.456Z,8380
2018-07-30T09:55:50.470Z,8172
2018-07-30T09:56:50.983Z,7588
2018-07-30T09:57:50.999Z,7204
2018-07-30T09:58:50.485Z,6920
2018-07-30T09:59:50.754Z,6760
2018-07-30T10:00:50.499Z,6644
2018-07-30T10:01:51.027Z,6732
2018-07-30T10:02:51.029Z,6808
2018-07-30T10:03:50.524Z,6932
2018-07-30T10:04:50.791Z,7252
2018-07-30T10:05:50.793Z,7496
2018-07-30T10:06:51.056Z,7516
2018-07-30T10:07:50.814Z,7784
2018-07-30T10:08:50.820Z,7380
2018-07-30T10:09:51.083Z,6684
2018-07-30T10:10:51.102Z,6984
2018-07-30T10:11:51.522Z,7300
2018-07-30T10:12:51.106Z,7428
2018-07-30T10:13:50.862Z,7352
2018-07-30T10:14:51.130Z,7188
2018-07-30T10:15:50.875Z,7392
2018-07-30T10:16:50.633Z,8160
2018-07-30T10:17:51.524Z,7636
2018-07-30T10:18:50.930Z,7660
2018-07-30T10:19:50.646Z,7348
2018-07-30T10:20:50.904Z,7364
2018-07-30T10:21:50.666Z,7332
2018-07-30T10:22:51.191Z,6304
2018-07-30T10:23:51.543Z,6532
2018-07-30T10:24:50.937Z,6904
2018-07-30T10:25:50.949Z,6136
2018-07-30T10:26:50.954Z,6108
2018-07-30T10:27:51.220Z,6124
2018-07-30T10:28:50.998Z,6124
2018-07-30T10:29:50.713Z,6148
2018-07-30T10:30:51.479Z,6104
2018-07-30T10:31:50.729Z,6264
2018-07-30T10:32:50.998Z,6172
2018-07-30T10:33:51.261Z,5984
2018-07-30T10:34:51.014Z,5944
2018-07-30T10:35:51.061Z,6024
2018-07-30T10:36:51.288Z,6232
2018-07-30T10:37:51.336Z,6444
2018-07-30T10:38:51.311Z,6424
2018-07-30T10:39:51.129Z,6636
2018-07-30T10:40:51.052Z,6792
2018-07-30T10:41:51.059Z,6736
2018-07-30T10:42:51.068Z,6556
2018-07-30T10:43:51.336Z,6580
2018-07-30T10:44:51.346Z,6728
2018-07-30T10:45:51.350Z,6692
2018-07-30T10:46:51.098Z,6440
2018-07-30T10:47:51.110Z,6660
2018-07-30T10:48:51.364Z,6768
2018-07-30T10:49:51.374Z,7276
2018-07-30T10:50:50.871Z,7084
2018-07-30T10:51:51.673Z,7232
2018-07-30T10:52:51.142Z,7476
2018-07-30T10:53:51.285Z,7500
2018-07-30T10:54:51.409Z,7448
2018-07-30T10:55:51.164Z,7460
2018-07-30T10:56:51.423Z,7532
2018-07-30T10:57:51.430Z,7812
2018-07-30T10:58:51.436Z,8192
2018-07-30T10:59:51.445Z,8644
2018-07-30T11:00:51.455Z,9084
2018-07-30T11:01:51.203Z,9452
2018-07-30T11:02:51.466Z,9732
2018-07-30T11:03:51.279Z,9972
2018-07-30T11:04:51.483Z,9912
2018-07-30T11:05:51.232Z,9976
2018-07-30T11:06:51.239Z,10224
2018-07-30T11:07:51.696Z,10504
2018-07-30T11:08:51.250Z,10560
2018-07-30T11:09:51.413Z,10724
2018-07-30T11:10:51.574Z,10628
2018-07-30T11:11:51.278Z,10464
2018-07-30T11:12:51.538Z,10376
2018-07-30T11:13:51.544Z,10360
2018-07-30T11:14:51.502Z,10600
2018-07-30T11:15:51.052Z,10956
2018-07-30T11:16:51.577Z,11232
2018-07-30T11:17:51.569Z,11556
2018-07-30T11:18:51.364Z,11764
2018-07-30T11:19:51.330Z,11676
2018-07-30T11:20:51.359Z,11352
2018-07-30T11:21:50.833Z,11188
2018-07-30T11:22:51.607Z,11284
2018-07-30T11:23:51.614Z,11336
2018-07-30T11:24:51.365Z,11460
2018-07-30T11:25:51.631Z,11772
2018-07-30T11:26:51.642Z,12020
2018-07-30T11:27:51.450Z,12228
2018-07-30T11:28:51.651Z,12336
2018-07-30T11:29:51.655Z,12424
2018-07-30T11:30:51.408Z,12412
2018-07-30T11:31:51.156Z,12308
2018-07-30T11:32:51.424Z,12088
2018-07-30T11:33:51.430Z,11940
2018-07-30T11:34:51.434Z,11912
2018-07-30T11:35:51.446Z,11896
2018-07-30T11:36:51.704Z,11884
2018-07-30T11:37:51.452Z,11860
2018-07-30T11:38:51.212Z,11892
2018-07-30T11:39:51.468Z,11972
2018-07-30T11:40:51.733Z,12064
2018-07-30T11:41:51.743Z,12200
2018-07-30T11:42:51.792Z,12452
2018-07-30T11:43:52.186Z,12752
2018-07-30T11:44:51.506Z,13056
2018-07-30T11:45:51.511Z,13260
2018-07-30T11:46:51.517Z,13440
2018-07-30T11:47:51.268Z,13476
2018-07-30T11:48:52.149Z,13452
2018-07-30T11:49:51.571Z,13472
2018-07-30T11:50:51.552Z,13776
2018-07-30T11:51:51.561Z,13992
2018-07-30T11:52:51.322Z,14508
2018-07-30T11:53:51.598Z,14808
2018-07-30T11:54:51.323Z,14840
2018-07-30T11:55:51.583Z,14552
2018-07-30T11:56:51.592Z,14176
2018-07-30T11:57:51.598Z,13456
2018-07-30T11:58:51.607Z,12628
2018-07-30T11:59:51.875Z,11688
2018-07-30T12:00:51.370Z,10816
2018-07-30T12:01:52.313Z,10248
2018-07-30T12:02:51.897Z,10168
2018-07-30T12:03:51.908Z,10284
2018-07-30T12:04:51.909Z,10344
2018-07-30T12:05:51.663Z,10360
2018-07-30T12:06:51.673Z,9900
2018-07-30T12:07:51.933Z,9244
2018-07-30T12:08:52.189Z,8636
2018-07-30T12:09:51.690Z,8124
2018-07-30T12:10:51.955Z,7660
2018-07-30T12:11:52.026Z,7388
2018-07-30T12:12:51.975Z,7432
2018-07-30T12:13:51.981Z,7688
2018-07-30T12:14:52.001Z,8076
2018-07-30T12:15:51.745Z,8408
2018-07-30T12:16:52.029Z,8632
2018-07-30T12:17:51.757Z,8820
2018-07-30T12:18:51.792Z,9248
2018-07-30T12:19:52.024Z,8760
2018-07-30T12:20:51.876Z,8608
2018-07-30T12:21:52.305Z,8560
2018-07-30T12:22:51.793Z,8448
2018-07-30T12:23:52.106Z,8564
2018-07-30T12:24:51.830Z,8492
2018-07-30T12:25:51.822Z,8276
2018-07-30T12:26:52.126Z,8380
2018-07-30T12:27:51.840Z,8156
2018-07-30T12:28:52.092Z,7548
2018-07-30T12:29:51.839Z,7264
2018-07-30T12:30:51.845Z,6972
2018-07-30T12:31:52.120Z,6748
2018-07-30T12:32:52.119Z,6584
2018-07-30T12:33:52.133Z,6464
2018-07-30T12:34:52.133Z,6404
2018-07-30T12:35:52.145Z,6396
2018-07-30T12:36:51.890Z,6536
2018-07-30T12:37:51.897Z,6660
2018-07-30T12:38:51.917Z,6784
2018-07-30T12:39:52.178Z,7140
2018-07-30T12:40:52.193Z,7460
2018-07-30T12:41:52.349Z,7196
2018-07-30T12:42:51.936Z,6612
2018-07-30T12:43:51.688Z,6280
2018-07-30T12:44:51.819Z,6136
2018-07-30T12:45:52.211Z,6280
2018-07-30T12:46:52.219Z,6456
2018-07-30T12:47:51.997Z,6516
2018-07-30T12:48:52.309Z,6576
2018-07-30T12:49:52.252Z,6668
2018-07-30T12:50:52.307Z,6752
2018-07-30T12:51:52.255Z,6904
2018-07-30T12:52:52.285Z,7124
2018-07-30T12:53:52.266Z,7316
2018-07-30T12:54:52.045Z,7364
2018-07-30T12:55:52.298Z,7384
2018-07-30T12:56:52.436Z,7432
2018-07-30T12:57:51.527Z,7580
2018-07-30T12:58:51.789Z,7576
2018-07-30T12:59:52.061Z,7492
2018-07-30T13:00:52.317Z,7396
2018-07-30T13:01:52.069Z,7324
2018-07-30T13:02:52.649Z,7004
2018-07-30T13:03:52.335Z,6816
2018-07-30T13:04:51.832Z,6852
2018-07-30T13:05:52.101Z,7204
2018-07-30T13:06:52.361Z,7164
2018-07-30T13:07:52.109Z,6796
2018-07-30T13:08:51.863Z,6740
2018-07-30T13:09:52.164Z,6544
2018-07-30T13:10:52.392Z,6272
2018-07-30T13:11:52.460Z,6044
2018-07-30T13:12:52.141Z,5872
2018-07-30T13:13:52.658Z,5776
2018-07-30T13:14:52.412Z,5772
2018-07-30T13:15:51.909Z,5856
2018-07-30T13:16:51.914Z,6200
2018-07-30T13:17:52.442Z,6400
2018-07-30T13:18:52.447Z,6576
2018-07-30T13:19:52.454Z,6948
2018-07-30T13:20:52.501Z,7528
2018-07-30T13:21:52.462Z,7816
2018-07-30T13:22:51.957Z,8228
2018-07-30T13:23:52.487Z,8424
2018-07-30T13:24:52.484Z,8536
2018-07-30T13:25:51.980Z,8644
2018-07-30T13:26:52.914Z,8788
2018-07-30T13:27:52.280Z,8992
2018-07-30T13:28:52.640Z,9216
2018-07-30T13:29:52.524Z,9760
2018-07-30T13:30:52.525Z,9804
2018-07-30T13:31:52.022Z,9612
2018-07-30T13:32:52.401Z,9252
2018-07-30T13:33:52.302Z,8820
2018-07-30T13:34:52.300Z,8300
2018-07-30T13:35:52.311Z,7676